sensor_id;sensor_type;location;lat;lon;timestamp;pressure;altitude;pressure_sealevel;temperature;humidity
39823;BME280;25499;53.958;10.970;2023-02-02T06:51:21;101216.88;;;3.59;100.00
39823;BME280;25499;53.958;10.970;2023-02-02T06:53:47;101220.41;;;3.63;100.00
39823;BME280;25499;53.958;10.970;2023-02-02T06:56:15;101239.47;;;3.68;100.00
39823;BME280;25499;53.958;10.970;2023-02-02T06:58:41;101238.59;;;3.67;100.00
39823;BME280;25499;53.958;10.970;2023-02-02T07:01:11;101231.63;;;3.63;100.00
39823;BME280;25499;53.958;10.970;2023-02-02T07:03:38;101239.53;;;3.69;100.00
39823;BME280;25499;53.958;10.970;2023-02-02T07:06:33;101235.59;;;3.81;100.00
39823;BME280;25499;53.958;10.970;2023-02-02T07:08:59;101232.91;;;3.78;100.00
39823;BME280;25499;53.958;10.970;2023-02-02T07:11:25;101232.81;;;3.74;100.00
39823;BME280;25499;53.958;10.970;2023-02-02T07:13:50;101252.22;;;3.63;100.00
39823;BME280;25499;53.958;10.970;2023-02-02T07:16:17;101247.00;;;3.62;100.00
39823;BME280;25499;53.958;10.970;2023-02-02T07:18:43;101253.53;;;3.52;100.00
39823;BME280;25499;53.958;10.970;2023-02-02T07:21:16;101258.91;;;3.58;100.00
39823;BME280;25499;53.958;10.970;2023-02-02T07:23:41;101265.09;;;3.65;100.00
39823;BME280;25499;53.958;10.970;2023-02-02T07:26:08;101270.22;;;3.63;100.00
39823;BME280;25499;53.958;10.970;2023-02-02T07:28:34;101270.94;;;3.59;100.00
39823;BME280;25499;53.958;10.970;2023-02-02T07:31:10;101277.34;;;3.70;100.00
39823;BME280;25499;53.958;10.970;2023-02-02T07:33:36;101286.09;;;3.76;100.00
39823;BME280;25499;53.958;10.970;2023-02-02T07:36:05;101293.59;;;3.69;100.00
39823;BME280;25499;53.958;10.970;2023-02-02T07:38:30;101300.28;;;3.64;100.00
39823;BME280;25499;53.958;10.970;2023-02-02T07:40:55;101308.13;;;3.67;100.00
39823;BME280;25499;53.958;10.970;2023-02-02T07:43:24;101316.72;;;3.68;100.00
39823;BME280;25499;53.958;10.970;2023-02-02T07:45:50;101319.34;;;3.69;100.00
39823;BME280;25499;53.958;10.970;2023-02-02T07:48:15;101323.28;;;3.60;100.00
39823;BME280;25499;53.958;10.970;2023-02-02T07:50:40;101328.72;;;3.67;100.00
39823;BME280;25499;53.958;10.970;2023-02-02T07:53:06;101331.50;;;3.73;100.00
39823;BME280;25499;53.958;10.970;2023-02-02T07:55:31;101322.53;;;3.62;100.00
39823;BME280;25499;53.958;10.970;2023-02-02T07:57:57;101329.75;;;3.72;100.00
39823;BME280;25499;53.958;10.970;2023-02-02T08:00:23;101336.97;;;3.83;100.00
39823;BME280;25499;53.958;10.970;2023-02-02T08:02:49;101331.06;;;3.87;100.00
39823;BME280;25499;53.958;10.970;2023-02-02T08:05:14;101339.59;;;3.84;100.00
39823;BME280;25499;53.958;10.970;2023-02-02T08:07:40;101346.22;;;3.78;100.00
39823;BME280;25499;53.958;10.970;2023-02-02T08:10:06;101350.66;;;3.82;100.00
39823;BME280;25499;53.958;10.970;2023-02-02T08:12:31;101365.41;;;3.86;100.00
39823;BME280;25499;53.958;10.970;2023-02-02T08:14:57;101369.00;;;3.91;100.00
39823;BME280;25499;53.958;10.970;2023-02-02T08:17:23;101361.56;;;4.00;100.00
39823;BME280;25499;53.958;10.970;2023-02-02T08:19:48;101370.03;;;3.96;100.00
39823;BME280;25499;53.958;10.970;2023-02-02T08:22:14;101366.44;;;3.91;100.00
39823;BME280;25499;53.958;10.970;2023-02-02T08:24:39;101370.66;;;3.89;100.00
39823;BME280;25499;53.958;10.970;2023-02-02T08:27:07;101380.22;;;3.93;100.00
39823;BME280;25499;53.958;10.970;2023-02-02T08:29:37;101384.34;;;3.88;100.00
39823;BME280;25499;53.958;10.970;2023-02-02T08:32:03;101388.59;;;3.86;100.00
39823;BME280;25499;53.958;10.970;2023-02-02T08:34:29;101391.97;;;3.85;100.00
39823;BME280;25499;53.958;10.970;2023-02-02T08:36:55;101400.63;;;3.87;100.00
39823;BME280;25499;53.958;10.970;2023-02-02T08:39:20;101410.28;;;3.92;100.00
39823;BME280;25499;53.958;10.970;2023-02-02T08:41:46;101411.94;;;3.92;100.00
39823;BME280;25499;53.958;10.970;2023-02-02T08:44:13;101421.22;;;4.11;100.00
39823;BME280;25499;53.958;10.970;2023-02-02T08:46:40;101418.69;;;4.13;100.00
39823;BME280;25499;53.958;10.970;2023-02-02T08:49:08;101427.63;;;3.98;100.00
39823;BME280;25499;53.958;10.970;2023-02-02T08:51:34;101433.00;;;4.04;100.00
39823;BME280;25499;53.958;10.970;2023-02-02T08:53:59;101439.44;;;4.17;100.00
39823;BME280;25499;53.958;10.970;2023-02-02T08:56:25;101434.66;;;4.28;100.00
39823;BME280;25499;53.958;10.970;2023-02-02T08:58:53;101437.72;;;4.16;100.00
39823;BME280;25499;53.958;10.970;2023-02-02T09:01:23;101438.91;;;4.02;100.00
39823;BME280;25499;53.958;10.970;2023-02-02T09:03:55;101458.38;;;4.18;100.00
39823;BME280;25499;53.958;10.970;2023-02-02T09:06:26;101457.47;;;4.41;100.00
39823;BME280;25499;53.958;10.970;2023-02-02T09:08:52;101455.50;;;4.61;100.00
39823;BME280;25499;53.958;10.970;2023-02-02T09:11:18;101468.66;;;4.69;100.00
39823;BME280;25499;53.958;10.970;2023-02-02T09:13:46;101468.66;;;4.69;100.00
39823;BME280;25499;53.958;10.970;2023-02-02T09:16:14;101466.81;;;4.65;100.00
39823;BME280;25499;53.958;10.970;2023-02-02T09:18:40;101465.19;;;4.67;100.00
39823;BME280;25499;53.958;10.970;2023-02-02T09:21:09;101473.56;;;4.61;100.00
39823;BME280;25499;53.958;10.970;2023-02-02T09:23:36;101483.88;;;4.61;100.00
39823;BME280;25499;53.958;10.970;2023-02-02T09:26:31;101480.94;;;4.76;100.00
39823;BME280;25499;53.958;10.970;2023-02-02T09:29:03;101491.75;;;4.92;100.00
39823;BME280;25499;53.958;10.970;2023-02-02T09:31:32;101492.75;;;4.97;100.00
39823;BME280;25499;53.958;10.970;2023-02-02T09:34:02;101496.63;;;4.82;100.00
39823;BME280;25499;53.958;10.970;2023-02-02T09:36:29;101496.47;;;4.78;100.00
39823;BME280;25499;53.958;10.970;2023-02-02T09:38:54;101500.59;;;4.73;100.00
39823;BME280;25499;53.958;10.970;2023-02-02T09:52:09;101525.22;;;5.17;100.00
39823;BME280;25499;53.958;10.970;2023-02-02T09:54:42;101533.81;;;5.16;100.00
39823;BME280;25499;53.958;10.970;2023-02-02T09:57:16;101532.91;;;5.14;100.00
39823;BME280;25499;53.958;10.970;2023-02-02T09:59:45;101547.97;;;5.29;100.00
39823;BME280;25499;53.958;10.970;2023-02-02T10:02:44;101556.78;;;5.93;100.00
39823;BME280;25499;53.958;10.970;2023-02-02T10:05:25;101572.47;;;6.62;99.58
39823;BME280;25499;53.958;10.970;2023-02-02T10:07:58;101547.47;;;6.61;97.72
39823;BME280;25499;53.958;10.970;2023-02-02T10:10:34;101544.38;;;6.74;95.76
39823;BME280;25499;53.958;10.970;2023-02-02T10:13:12;101540.03;;;6.41;93.44
39823;BME280;25499;53.958;10.970;2023-02-02T10:18:45;101547.31;;;5.94;93.29
39823;BME280;25499;53.958;10.970;2023-02-02T10:21:38;101555.34;;;5.73;93.52
39823;BME280;25499;53.958;10.970;2023-02-02T10:24:19;101561.66;;;5.54;93.70
39823;BME280;25499;53.958;10.970;2023-02-02T10:26:47;101565.47;;;5.38;93.76
39823;BME280;25499;53.958;10.970;2023-02-02T10:45:50;101544.41;;;6.76;84.10
39823;BME280;25499;53.958;10.970;2023-02-02T10:48:19;101572.34;;;6.90;84.73
39823;BME280;25499;53.958;10.970;2023-02-02T10:50:49;101590.25;;;7.53;84.54
39823;BME280;25499;53.958;10.970;2023-02-02T10:53:16;101593.19;;;8.09;83.98
39823;BME280;25499;53.958;10.970;2023-02-02T11:00:45;101588.22;;;8.18;83.01
39823;BME280;25499;53.958;10.970;2023-02-02T11:03:16;101599.50;;;8.65;82.21
39823;BME280;25499;53.958;10.970;2023-02-02T11:05:42;101587.91;;;8.93;81.15
39823;BME280;25499;53.958;10.970;2023-02-02T11:10:55;101594.16;;;9.06;81.18
39823;BME280;25499;53.958;10.970;2023-02-02T11:18:40;101581.06;;;9.55;78.63
39823;BME280;25499;53.958;10.970;2023-02-02T11:21:26;101576.28;;;9.85;77.44
39823;BME280;25499;53.958;10.970;2023-02-02T11:23:53;101571.75;;;10.36;75.90
39823;BME280;25499;53.958;10.970;2023-02-02T11:26:19;101557.25;;;10.61;74.20
39823;BME280;25499;53.958;10.970;2023-02-02T11:28:47;101540.88;;;10.75;73.09
39823;BME280;25499;53.958;10.970;2023-02-02T11:31:31;101536.00;;;11.16;71.42
39823;BME280;25499;53.958;10.970;2023-02-02T11:34:21;101531.78;;;11.34;70.97
39823;BME280;25499;53.958;10.970;2023-02-02T11:39:35;101522.63;;;12.18;67.76
39823;BME280;25499;53.958;10.970;2023-02-02T11:42:09;101504.34;;;12.19;66.57
39823;BME280;25499;53.958;10.970;2023-02-02T11:44:37;101481.72;;;12.24;65.15
39823;BME280;25499;53.958;10.970;2023-02-02T11:47:04;101500.00;;;12.35;65.37
39823;BME280;25499;53.958;10.970;2023-02-02T11:49:35;101513.97;;;12.43;65.00
39823;BME280;25499;53.958;10.970;2023-02-02T11:52:05;101518.31;;;12.46;65.09
39823;BME280;25499;53.958;10.970;2023-02-02T11:54:36;101514.00;;;12.68;63.94
39823;BME280;25499;53.958;10.970;2023-02-02T11:57:14;101520.94;;;12.67;64.00
39823;BME280;25499;53.958;10.970;2023-02-02T11:59:42;101508.75;;;12.59;63.29
39823;BME280;25499;53.958;10.970;2023-02-02T12:04:37;101514.75;;;13.64;61.24
39823;BME280;25499;53.958;10.970;2023-02-02T12:09:48;101476.78;;;14.42;57.98
39823;BME280;25499;53.958;10.970;2023-02-02T12:15:16;101483.69;;;15.47;55.85
39823;BME280;25499;53.958;10.970;2023-02-02T12:17:45;101485.72;;;15.98;55.03
39823;BME280;25499;53.958;10.970;2023-02-02T12:36:55;101499.41;;;17.27;49.87
39823;BME280;25499;53.958;10.970;2023-02-02T12:55:45;101550.91;;;16.33;51.88
39823;BME280;25499;53.958;10.970;2023-02-02T13:08:47;101518.38;;;15.74;51.54
39823;BME280;25499;53.958;10.970;2023-02-02T13:11:21;101549.00;;;14.86;53.30
39823;BME280;25499;53.958;10.970;2023-02-02T13:14:16;101542.88;;;14.86;53.62
39823;BME280;25499;53.958;10.970;2023-02-02T13:16:48;101531.69;;;14.64;53.48
39823;BME280;25499;53.958;10.970;2023-02-02T13:19:32;101546.94;;;13.86;54.64
39823;BME280;25499;53.958;10.970;2023-02-02T13:22:01;101563.63;;;12.90;56.67
39823;BME280;25499;53.958;10.970;2023-02-02T13:24:33;101567.97;;;12.47;57.56
39823;BME280;25499;53.958;10.970;2023-02-02T13:27:03;101610.25;;;11.77;59.93
39823;BME280;25499;53.958;10.970;2023-02-02T13:30:09;101614.81;;;10.91;61.32
39823;BME280;25499;53.958;10.970;2023-02-02T13:32:43;101665.44;;;10.36;64.65
39823;BME280;25499;53.958;10.970;2023-02-02T13:38:09;101660.13;;;9.66;66.12
39823;BME280;25499;53.958;10.970;2023-02-02T13:40:41;101679.72;;;9.47;67.51
39823;BME280;25499;53.958;10.970;2023-02-02T13:43:20;101690.25;;;9.04;68.52
39823;BME280;25499;53.958;10.970;2023-02-02T13:48:52;101719.72;;;8.61;71.20
39823;BME280;25499;53.958;10.970;2023-02-02T14:02:45;101731.44;;;8.05;73.37
39823;BME280;25499;53.958;10.970;2023-02-02T14:05:30;101731.72;;;8.17;73.15
39823;BME280;25499;53.958;10.970;2023-02-02T14:08:15;101730.50;;;8.01;72.93
39823;BME280;25499;53.958;10.970;2023-02-02T14:10:44;101742.19;;;7.85;73.61
39823;BME280;25499;53.958;10.970;2023-02-02T14:13:24;101748.16;;;7.81;74.18
39823;BME280;25499;53.958;10.970;2023-02-02T14:16:40;101749.22;;;7.55;74.65
39823;BME280;25499;53.958;10.970;2023-02-02T14:24:37;101751.00;;;7.56;75.38
39823;BME280;25499;53.958;10.970;2023-02-02T14:34:43;101761.00;;;7.10;76.34
39823;BME280;25499;53.958;10.970;2023-02-02T14:42:29;101772.63;;;6.93;76.38
39823;BME280;25499;53.958;10.970;2023-02-02T14:45:30;101770.00;;;6.91;76.13
39823;BME280;25499;53.958;10.970;2023-02-02T14:53:48;101751.44;;;6.76;74.83
39823;BME280;25499;53.958;10.970;2023-02-02T14:56:13;101762.88;;;6.55;75.39
39823;BME280;25499;53.958;10.970;2023-02-02T14:58:43;101766.59;;;6.63;75.38
39823;BME280;25499;53.958;10.970;2023-02-02T15:06:30;101763.31;;;6.40;74.77
39823;BME280;25499;53.958;10.970;2023-02-02T15:14:31;101765.31;;;5.94;75.02
39823;BME280;25499;53.958;10.970;2023-02-02T15:19:44;101778.44;;;5.75;75.80
39823;BME280;25499;53.958;10.970;2023-02-02T15:25:03;101791.13;;;5.43;77.03
39823;BME280;25499;53.958;10.970;2023-02-02T15:27:32;101793.59;;;5.38;76.93
39823;BME280;25499;53.958;10.970;2023-02-02T15:30:04;101801.16;;;5.34;77.11
39823;BME280;25499;53.958;10.970;2023-02-02T15:32:31;101804.66;;;5.36;77.33
39823;BME280;25499;53.958;10.970;2023-02-02T15:35:02;101817.41;;;5.07;77.94
39823;BME280;25499;53.958;10.970;2023-02-02T15:37:36;101831.50;;;4.93;79.05
39823;BME280;25499;53.958;10.970;2023-02-02T15:40:14;101830.22;;;4.81;79.64
39823;BME280;25499;53.958;10.970;2023-02-02T15:42:43;101843.25;;;4.62;80.34
39823;BME280;25499;53.958;10.970;2023-02-02T15:45:51;101852.38;;;4.54;80.78
39823;BME280;25499;53.958;10.970;2023-02-02T15:48:26;101853.19;;;4.53;81.08
39823;BME280;25499;53.958;10.970;2023-02-02T15:50:55;101863.50;;;4.53;81.49
39823;BME280;25499;53.958;10.970;2023-02-02T15:53:25;101852.97;;;4.46;81.46
39823;BME280;25499;53.958;10.970;2023-02-02T15:55:52;101859.72;;;4.44;81.77
39823;BME280;25499;53.958;10.970;2023-02-02T15:58:31;101864.41;;;4.32;82.29
39823;BME280;25499;53.958;10.970;2023-02-02T16:00:57;101862.84;;;4.15;82.71
39823;BME280;25499;53.958;10.970;2023-02-02T16:03:28;101875.66;;;4.13;83.29
39823;BME280;25499;53.958;10.970;2023-02-02T16:05:55;101878.13;;;4.10;83.78
39823;BME280;25499;53.958;10.970;2023-02-02T16:08:29;101884.03;;;4.07;83.52
39823;BME280;25499;53.958;10.970;2023-02-02T16:11:15;101893.72;;;4.13;83.90
39823;BME280;25499;53.958;10.970;2023-02-02T16:13:52;101901.06;;;4.25;84.38
39823;BME280;25499;53.958;10.970;2023-02-02T16:16:30;101901.19;;;4.28;84.57
39823;BME280;25499;53.958;10.970;2023-02-02T16:19:20;101908.56;;;4.40;84.78
39823;BME280;25499;53.958;10.970;2023-02-02T16:21:59;101906.41;;;4.51;84.24
39823;BME280;25499;53.958;10.970;2023-02-02T16:24:33;101898.34;;;4.22;84.06
39823;BME280;25499;53.958;10.970;2023-02-02T16:27:03;101894.88;;;4.00;84.61
39823;BME280;25499;53.958;10.970;2023-02-02T16:29:30;101912.44;;;4.30;84.54
39823;BME280;25499;53.958;10.970;2023-02-02T16:31:56;101904.16;;;4.16;84.20
39823;BME280;25499;53.958;10.970;2023-02-02T16:37:30;101912.41;;;3.88;84.96
39823;BME280;25499;53.958;10.970;2023-02-02T16:40:26;101914.59;;;3.79;85.01
39823;BME280;25499;53.958;10.970;2023-02-02T16:43:18;101930.00;;;3.98;85.68
39823;BME280;25499;53.958;10.970;2023-02-02T16:45:55;101916.34;;;3.41;85.51
39823;BME280;25499;53.958;10.970;2023-02-02T16:48:33;101924.84;;;3.20;85.87
39823;BME280;25499;53.958;10.970;2023-02-02T16:53:45;101937.88;;;3.43;85.97
39823;BME280;25499;53.958;10.970;2023-02-02T16:56:26;101934.53;;;3.26;86.44
39823;BME280;25499;53.958;10.970;2023-02-02T16:58:53;101937.09;;;3.26;86.91
39823;BME280;25499;53.958;10.970;2023-02-02T17:01:31;101938.19;;;3.31;87.11
39823;BME280;25499;53.958;10.970;2023-02-02T17:03:58;101929.19;;;3.21;87.10
39823;BME280;25499;53.958;10.970;2023-02-02T17:06:32;101931.38;;;3.31;86.94
39823;BME280;25499;53.958;10.970;2023-02-02T17:09:26;101923.69;;;3.13;86.91
39823;BME280;25499;53.958;10.970;2023-02-02T17:14:50;101932.66;;;3.04;87.22
39823;BME280;25499;53.958;10.970;2023-02-02T17:17:16;101937.69;;;3.01;87.55
39823;BME280;25499;53.958;10.970;2023-02-02T17:19:41;101941.41;;;3.07;87.90
39823;BME280;25499;53.958;10.970;2023-02-02T17:22:07;101939.56;;;3.23;88.06
39823;BME280;25499;53.958;10.970;2023-02-02T17:24:33;101937.47;;;3.15;88.08
39823;BME280;25499;53.958;10.970;2023-02-02T17:26:58;101932.81;;;3.07;88.35
39823;BME280;25499;53.958;10.970;2023-02-02T17:29:24;101924.59;;;2.78;87.71
39823;BME280;25499;53.958;10.970;2023-02-02T17:31:50;101929.34;;;2.88;87.94
39823;BME280;25499;53.958;10.970;2023-02-02T17:34:16;101932.72;;;3.05;88.03
39823;BME280;25499;53.958;10.970;2023-02-02T17:36:42;101927.00;;;2.93;88.00
39823;BME280;25499;53.958;10.970;2023-02-02T17:39:08;101920.53;;;2.47;87.91
39823;BME280;25499;53.958;10.970;2023-02-02T17:41:34;101926.78;;;2.52;88.24
39823;BME280;25499;53.958;10.970;2023-02-02T17:44:00;101915.41;;;2.47;88.33
39823;BME280;25499;53.958;10.970;2023-02-02T17:46:25;101909.19;;;2.26;88.03
39823;BME280;25499;53.958;10.970;2023-02-02T17:48:55;101920.19;;;2.39;88.63
39823;BME280;25499;53.958;10.970;2023-02-02T17:51:21;101924.59;;;2.42;89.08
39823;BME280;25499;53.958;10.970;2023-02-02T17:53:47;101918.25;;;2.35;89.05
39823;BME280;25499;53.958;10.970;2023-02-02T17:56:12;101917.91;;;2.46;89.17
39823;BME280;25499;53.958;10.970;2023-02-02T17:58:38;101927.16;;;2.42;89.47
39823;BME280;25499;53.958;10.970;2023-02-02T18:01:03;101922.38;;;2.32;89.25
39823;BME280;25499;53.958;10.970;2023-02-02T18:03:32;101916.78;;;2.22;89.59
39823;BME280;25499;53.958;10.970;2023-02-02T18:06:00;101912.31;;;2.02;89.52
39823;BME280;25499;53.958;10.970;2023-02-02T18:08:30;101913.66;;;2.12;89.77
39823;BME280;25499;53.958;10.970;2023-02-02T18:10:56;101923.63;;;2.58;90.10
39823;BME280;25499;53.958;10.970;2023-02-02T18:13:22;101926.78;;;2.34;90.59
39823;BME280;25499;53.958;10.970;2023-02-02T18:15:49;101926.50;;;2.46;90.85
39823;BME280;25499;53.958;10.970;2023-02-02T18:18:15;101905.31;;;2.34;90.79
39823;BME280;25499;53.958;10.970;2023-02-02T18:20:42;101918.25;;;2.35;91.23
39823;BME280;25499;53.958;10.970;2023-02-02T18:23:07;101919.13;;;2.36;91.54
39823;BME280;25499;53.958;10.970;2023-02-02T18:25:33;101923.44;;;2.53;91.80
39823;BME280;25499;53.958;10.970;2023-02-02T18:27:58;101925.25;;;2.56;91.80
39823;BME280;25499;53.958;10.970;2023-02-02T18:30:24;101931.41;;;2.59;92.19
39823;BME280;25499;53.958;10.970;2023-02-02T18:32:50;101922.47;;;2.69;92.16
39823;BME280;25499;53.958;10.970;2023-02-02T18:35:15;101921.38;;;2.46;91.99
39823;BME280;25499;53.958;10.970;2023-02-02T18:37:41;101917.81;;;2.44;92.53
39823;BME280;25499;53.958;10.970;2023-02-02T18:40:07;101921.88;;;2.57;92.68
39823;BME280;25499;53.958;10.970;2023-02-02T18:42:32;101922.19;;;2.63;92.50
39823;BME280;25499;53.958;10.970;2023-02-02T18:44:59;101916.34;;;2.49;92.53
39823;BME280;25499;53.958;10.970;2023-02-02T18:47:25;101918.84;;;2.48;92.84
39823;BME280;25499;53.958;10.970;2023-02-02T18:49:50;101919.66;;;2.65;93.03
39823;BME280;25499;53.958;10.970;2023-02-02T18:52:16;101914.47;;;2.63;92.67
39823;BME280;25499;53.958;10.970;2023-02-02T18:54:43;101910.28;;;2.65;92.52
39823;BME280;25499;53.958;10.970;2023-02-02T18:57:09;101911.38;;;2.52;92.68
39823;BME280;25499;53.958;10.970;2023-02-02T18:59:38;101917.75;;;2.42;92.93
39823;BME280;25499;53.958;10.970;2023-02-02T19:02:03;101907.41;;;2.59;92.58
39823;BME280;25499;53.958;10.970;2023-02-02T19:04:29;101906.00;;;2.48;92.54
39823;BME280;25499;53.958;10.970;2023-02-02T19:06:54;101913.16;;;2.53;92.92
39823;BME280;25499;53.958;10.970;2023-02-02T19:09:38;101910.38;;;2.67;92.62
39823;BME280;25499;53.958;10.970;2023-02-02T19:12:11;101908.94;;;2.55;92.53
39823;BME280;25499;53.958;10.970;2023-02-02T19:14:37;101903.03;;;2.56;92.43
39823;BME280;25499;53.958;10.970;2023-02-02T19:17:22;101896.19;;;2.57;92.47
39823;BME280;25499;53.958;10.970;2023-02-02T19:19:53;101891.22;;;2.26;92.77
39823;BME280;25499;53.958;10.970;2023-02-02T19:22:23;101893.44;;;2.36;93.18
39823;BME280;25499;53.958;10.970;2023-02-02T19:24:49;101886.47;;;2.33;93.35
39823;BME280;25499;53.958;10.970;2023-02-02T19:27:20;101886.97;;;2.44;93.32
39823;BME280;25499;53.958;10.970;2023-02-02T19:29:47;101892.38;;;2.67;93.47
39823;BME280;25499;53.958;10.970;2023-02-02T19:32:17;101877.31;;;2.56;93.14
39823;BME280;25499;53.958;10.970;2023-02-02T19:34:47;101875.03;;;2.45;93.00
39823;BME280;25499;53.958;10.970;2023-02-02T19:37:22;101874.13;;;2.44;93.28
39823;BME280;25499;53.958;10.970;2023-02-02T19:39:49;101879.13;;;2.41;93.82
39823;BME280;25499;53.958;10.970;2023-02-02T19:42:14;101877.44;;;2.41;93.92
39823;BME280;25499;53.958;10.970;2023-02-02T19:44:40;101873.34;;;2.45;94.03
39823;BME280;25499;53.958;10.970;2023-02-02T19:47:27;101868.34;;;2.30;94.16
39823;BME280;25499;53.958;10.970;2023-02-02T19:49:55;101881.19;;;2.48;94.23
39823;BME280;25499;53.958;10.970;2023-02-02T19:52:24;101873.84;;;2.38;94.30
39823;BME280;25499;53.958;10.970;2023-02-02T19:54:51;101873.25;;;2.43;94.52
39823;BME280;25499;53.958;10.970;2023-02-02T19:57:31;101871.34;;;2.57;94.48
39823;BME280;25499;53.958;10.970;2023-02-02T19:59:57;101855.34;;;2.45;94.53
39823;BME280;25499;53.958;10.970;2023-02-02T20:02:32;101852.03;;;2.48;94.55
39823;BME280;25499;53.958;10.970;2023-02-02T20:05:10;101851.88;;;2.80;94.09
39823;BME280;25499;53.958;10.970;2023-02-02T20:07:39;101840.50;;;2.57;93.96
39823;BME280;25499;53.958;10.970;2023-02-02T20:10:32;101835.09;;;2.51;94.29
39823;BME280;25499;53.958;10.970;2023-02-02T20:12:59;101831.47;;;2.48;94.78
39823;BME280;25499;53.958;10.970;2023-02-02T20:15:35;101826.06;;;2.41;95.10
39823;BME280;25499;53.958;10.970;2023-02-02T20:18:05;101822.09;;;2.48;95.17
39823;BME280;25499;53.958;10.970;2023-02-02T20:20:40;101822.72;;;2.62;95.14
39823;BME280;25499;53.958;10.970;2023-02-02T20:23:29;101819.09;;;2.76;95.22
39823;BME280;25499;53.958;10.970;2023-02-02T20:25:57;101817.06;;;2.69;94.90
39823;BME280;25499;53.958;10.970;2023-02-02T20:30:54;101813.84;;;2.73;95.26
39823;BME280;25499;53.958;10.970;2023-02-02T20:33:23;101812.78;;;2.70;95.16
39823;BME280;25499;53.958;10.970;2023-02-02T20:35:48;101810.69;;;2.61;95.37
39823;BME280;25499;53.958;10.970;2023-02-02T20:40:47;101808.31;;;2.66;95.95
39823;BME280;25499;53.958;10.970;2023-02-02T20:43:13;101804.28;;;2.71;95.97
39823;BME280;25499;53.958;10.970;2023-02-02T20:45:38;101801.47;;;2.66;96.18
39823;BME280;25499;53.958;10.970;2023-02-02T20:48:04;101789.91;;;2.56;96.38
39823;BME280;25499;53.958;10.970;2023-02-02T20:50:30;101787.28;;;2.55;96.75
39823;BME280;25499;53.958;10.970;2023-02-02T20:52:55;101786.38;;;2.54;96.84
39823;BME280;25499;53.958;10.970;2023-02-02T20:55:24;101787.84;;;2.67;97.18
39823;BME280;25499;53.958;10.970;2023-02-02T20:57:49;101792.59;;;2.77;97.45
39823;BME280;25499;53.958;10.970;2023-02-02T21:00:16;101785.81;;;2.79;97.63
